createdAt,value
2023-04-15T00:00:20.042Z,81.11
2023-04-15T00:01:23.313Z,81.21
2023-04-15T00:02:26.281Z,81.23
2023-04-15T00:03:29.227Z,81.56
2023-04-15T00:04:33.051Z,81.99
2023-04-15T00:05:36.255Z,82.63
2023-04-15T00:06:39.283Z,82.30
2023-04-15T00:07:41.655Z,82.83
2023-04-15T00:08:46.020Z,83.13
2023-04-15T00:09:48.756Z,83.37
2023-04-15T00:10:51.227Z,83.28
2023-04-15T00:11:54.124Z,82.47
2023-04-15T00:12:56.993Z,81.91
2023-04-15T00:14:00.282Z,81.94
2023-04-15T00:15:03.543Z,81.86
2023-04-15T00:16:07.898Z,81.58
2023-04-15T00:17:10.541Z,80.56
2023-04-15T00:18:13.174Z,80.56
2023-04-15T00:19:15.328Z,80.13
2023-04-15T00:20:17.659Z,80.13
2023-04-15T00:21:21.156Z,80.03
2023-04-15T00:22:23.899Z,80.08
2023-04-15T00:23:26.754Z,80.09
2023-04-15T00:24:30.738Z,79.99
2023-04-15T00:25:33.430Z,79.89
2023-04-15T00:26:36.093Z,79.53
2023-04-15T00:27:38.970Z,79.31
2023-04-15T00:28:41.841Z,80.40
2023-04-15T00:29:44.411Z,81.29
2023-04-15T00:30:46.877Z,81.89
2023-04-15T00:31:49.157Z,82.01
2023-04-15T00:32:52.130Z,82.13
2023-04-15T00:33:56.277Z,81.87
2023-04-15T00:34:58.304Z,81.87
2023-04-15T00:36:00.331Z,82.01
2023-04-15T00:37:05.205Z,82.58
2023-04-15T00:38:08.429Z,82.65
2023-04-15T00:39:10.834Z,82.59
2023-04-15T00:40:16.118Z,82.23
2023-04-15T00:41:19.305Z,82.22
2023-04-15T00:42:22.311Z,82.45
2023-04-15T00:43:26.381Z,82.40
2023-04-15T00:44:29.198Z,82.62
2023-04-15T00:45:32.906Z,83.52
2023-04-15T00:46:37.215Z,83.91
2023-04-15T00:47:42.636Z,84.05
2023-04-15T00:48:46.384Z,84.06
2023-04-15T00:49:48.769Z,84.13
2023-04-15T00:50:52.478Z,84.32
2023-04-15T00:51:55.096Z,84.01
2023-04-15T00:52:57.349Z,83.44
2023-04-15T00:54:00.182Z,83.42
2023-04-15T00:55:05.040Z,83.87
2023-04-15T00:56:08.122Z,84.76
2023-04-15T00:57:10.928Z,85.08
2023-04-15T00:58:13.931Z,85.16
2023-04-15T00:59:18.714Z,85.71
2023-04-15T01:00:22.637Z,85.81
2023-04-15T01:01:26.543Z,85.64
2023-04-15T01:02:29.261Z,85.60
2023-04-15T01:03:32.218Z,85.54
2023-04-15T01:04:38.321Z,85.66
2023-04-15T01:05:41.151Z,85.62
2023-04-15T01:06:43.920Z,84.91
2023-04-15T01:07:47.565Z,84.54
2023-04-15T01:08:50.723Z,83.82
2023-04-15T01:09:53.200Z,83.50
2023-04-15T01:10:57.946Z,83.23
2023-04-15T01:12:00.470Z,83.50
2023-04-15T01:13:03.594Z,83.33
2023-04-15T01:14:07.131Z,83.63
2023-04-15T01:15:10.812Z,83.86
2023-04-15T01:16:14.359Z,83.79
2023-04-15T01:17:18.563Z,83.09
2023-04-15T01:18:21.121Z,83.14
2023-04-15T01:19:23.475Z,82.91
2023-04-15T01:20:26.996Z,83.05
2023-04-15T01:21:30.466Z,83.17
2023-04-15T01:22:33.946Z,83.17
2023-04-15T01:23:38.154Z,83.16
2023-04-15T01:24:43.858Z,83.05
2023-04-15T01:25:46.947Z,82.93
2023-04-15T01:26:49.922Z,82.50
2023-04-15T01:27:52.449Z,82.49
2023-04-15T01:28:55.749Z,82.26
2023-04-15T01:29:59.435Z,82.33
2023-04-15T01:31:12.892Z,82.03
2023-04-15T01:32:15.987Z,81.51
2023-04-15T01:33:19.566Z,81.57
2023-04-15T01:34:22.203Z,81.42
2023-04-15T01:35:24.756Z,81.14
2023-04-15T01:36:28.199Z,80.59
2023-04-15T01:37:32.172Z,80.48
2023-04-15T01:38:35.760Z,80.59
2023-04-15T01:39:38.906Z,80.74
2023-04-15T01:40:41.300Z,80.92
2023-04-15T01:41:44.547Z,81.14
2023-04-15T01:42:46.896Z,81.96
2023-04-15T01:43:52.076Z,82.31
2023-04-15T01:44:54.497Z,82.51
2023-04-15T01:45:56.634Z,82.51
2023-04-15T01:46:59.189Z,82.28
2023-04-15T01:48:02.337Z,82.38
2023-04-15T01:49:04.662Z,82.08
2023-04-15T01:50:09.127Z,81.98
2023-04-15T01:51:11.581Z,81.76
2023-04-15T01:52:16.269Z,82.23
2023-04-15T01:53:19.232Z,82.36
2023-04-15T01:54:22.679Z,82.54
2023-04-15T01:55:26.674Z,82.48
2023-04-15T01:56:29.204Z,81.93
2023-04-15T01:57:32.040Z,81.67
2023-04-15T01:58:34.365Z,81.03
2023-04-15T01:59:36.682Z,81.06
2023-04-15T02:00:39.945Z,81.26
2023-04-15T02:01:42.258Z,80.81
2023-04-15T02:02:44.719Z,80.29
2023-04-15T02:03:47.241Z,81.06
2023-04-15T02:04:52.998Z,82.18
2023-04-15T02:05:56.120Z,82.71
2023-04-15T02:06:58.629Z,82.45
2023-04-15T02:08:01.177Z,82.76
2023-04-15T02:09:03.969Z,82.72
2023-04-15T02:10:07.417Z,82.06
2023-04-15T02:11:11.128Z,81.86
2023-04-15T02:12:13.476Z,82.02
2023-04-15T02:13:16.761Z,81.73
2023-04-15T02:14:19.636Z,81.69
2023-04-15T02:15:22.620Z,81.49
2023-04-15T02:16:25.522Z,81.73
2023-04-15T02:17:28.423Z,81.62
2023-04-15T02:18:31.035Z,81.37
2023-04-15T02:19:34.462Z,81.41
2023-04-15T02:20:39.096Z,81.96
2023-04-15T02:21:41.806Z,82.27
2023-04-15T02:22:44.290Z,82.42
2023-04-15T02:23:47.827Z,82.45
2023-04-15T02:24:50.922Z,82.79
2023-04-15T02:25:54.355Z,82.50
2023-04-15T02:26:58.618Z,82.27
2023-04-15T02:28:01.435Z,82.27
2023-04-15T02:29:03.834Z,82.34
2023-04-15T02:30:07.407Z,81.65
2023-04-15T02:31:10.657Z,81.84
2023-04-15T02:32:13.835Z,81.92
2023-04-15T02:33:16.139Z,81.85
2023-04-15T02:34:22.062Z,82.04
2023-04-15T02:35:25.373Z,82.44
2023-04-15T02:36:29.289Z,82.53
2023-04-15T02:37:35.007Z,83.19
2023-04-15T02:38:39.278Z,83.82
2023-04-15T02:39:43.367Z,84.11
2023-04-15T02:40:46.010Z,84.27
2023-04-15T02:41:52.699Z,84.27
2023-04-15T02:42:58.144Z,84.33
2023-04-15T02:44:00.825Z,83.96
2023-04-15T02:45:05.361Z,83.16
2023-04-15T02:46:10.546Z,82.86
2023-04-15T02:47:14.726Z,83.09
2023-04-15T02:48:19.727Z,83.36
2023-04-15T02:49:22.429Z,83.29
2023-04-15T02:50:25.577Z,83.09
2023-04-15T02:51:31.639Z,82.99
2023-04-15T02:52:34.444Z,83.07
2023-04-15T02:53:36.914Z,82.94
2023-04-15T02:54:39.455Z,83.12
2023-04-15T02:55:42.786Z,83.55
2023-04-15T02:56:45.445Z,83.79
2023-04-15T02:57:47.789Z,83.56
2023-04-15T02:58:50.862Z,83.49
2023-04-15T02:59:53.816Z,83.49
2023-04-15T03:00:56.334Z,83.50
2023-04-15T03:02:00.470Z,83.12
2023-04-15T03:03:04.643Z,82.66
2023-04-15T03:04:08.334Z,82.82
2023-04-15T03:05:15.773Z,82.71
2023-04-15T03:06:20.295Z,82.62
2023-04-15T03:07:24.611Z,82.71
2023-04-15T03:08:29.030Z,82.60
2023-04-15T03:09:32.458Z,81.98
2023-04-15T03:10:37.569Z,82.14
2023-04-15T03:11:41.444Z,82.38
2023-04-15T03:12:45.064Z,82.74
2023-04-15T03:13:49.454Z,83.14
2023-04-15T03:14:56.489Z,83.14
2023-04-15T03:16:00.718Z,83.11
2023-04-15T03:17:03.078Z,82.40
2023-04-15T03:18:06.840Z,82.40
2023-04-15T03:19:11.496Z,82.47
2023-04-15T03:20:15.226Z,82.75
2023-04-15T03:21:19.347Z,83.11
2023-04-15T03:22:22.836Z,83.11
2023-04-15T03:23:25.732Z,82.99
2023-04-15T03:24:29.768Z,82.47
2023-04-15T03:25:32.584Z,82.81
2023-04-15T03:26:35.706Z,83.05
2023-04-15T03:27:41.420Z,82.95
2023-04-15T03:28:44.034Z,82.59
2023-04-15T03:29:48.122Z,82.85
2023-04-15T03:30:52.048Z,82.92
2023-04-15T03:31:54.320Z,82.73
2023-04-15T03:32:56.618Z,82.45
2023-04-15T03:33:58.877Z,82.56
2023-04-15T03:35:02.282Z,82.34
2023-04-15T03:36:05.424Z,82.43
2023-04-15T03:37:08.168Z,82.73
2023-04-15T03:38:10.638Z,82.88
2023-04-15T03:39:13.183Z,82.88
2023-04-15T03:40:16.385Z,82.92
2023-04-15T03:41:18.550Z,82.95
2023-04-15T03:42:20.922Z,82.91
2023-04-15T03:43:23.745Z,82.33
2023-04-15T03:44:28.950Z,82.39
2023-04-15T03:45:31.349Z,82.49
2023-04-15T03:46:33.723Z,82.43
2023-04-15T03:47:36.098Z,82.48
2023-04-15T03:48:38.436Z,82.50
2023-04-15T03:49:40.896Z,82.17
2023-04-15T03:50:43.613Z,82.97
2023-04-15T03:51:46.053Z,83.34
2023-04-15T03:52:49.182Z,83.42
2023-04-15T03:53:52.393Z,83.33
2023-04-15T03:54:56.549Z,83.22
2023-04-15T03:55:59.437Z,82.71
2023-04-15T03:57:01.837Z,82.37
2023-04-15T03:58:04.112Z,82.21
2023-04-15T03:59:06.558Z,82.00
2023-04-15T04:00:10.164Z,81.89
2023-04-15T04:01:15.973Z,81.78
2023-04-15T04:02:18.390Z,81.87
2023-04-15T04:03:21.729Z,81.45
2023-04-15T04:04:24.760Z,80.98
2023-04-15T04:05:27.174Z,80.92
2023-04-15T04:06:29.901Z,81.13
2023-04-15T04:07:31.970Z,81.21
2023-04-15T04:08:34.290Z,81.33
2023-04-15T04:09:38.403Z,81.29
2023-04-15T04:10:41.011Z,81.53
2023-04-15T04:11:45.011Z,81.60
2023-04-15T04:12:47.290Z,81.68
2023-04-15T04:13:49.931Z,81.57
2023-04-15T04:14:52.049Z,81.46
2023-04-15T04:15:54.519Z,80.69
2023-04-15T04:16:57.106Z,80.67
2023-04-15T04:18:01.157Z,80.99
2023-04-15T04:19:04.792Z,81.59
2023-04-15T04:20:09.140Z,81.71
2023-04-15T04:21:11.872Z,81.41
2023-04-15T04:22:14.226Z,81.67
2023-04-15T04:23:16.448Z,82.16
2023-04-15T04:24:18.903Z,81.59
2023-04-15T04:25:21.947Z,80.99
2023-04-15T04:26:25.369Z,80.98
2023-04-15T04:27:27.927Z,81.40
2023-04-15T04:28:30.183Z,82.21
2023-04-15T04:29:32.531Z,82.68
2023-04-15T04:30:35.815Z,82.86
2023-04-15T04:31:39.317Z,83.05
2023-04-15T04:32:41.679Z,83.06
2023-04-15T04:33:43.994Z,82.84
2023-04-15T04:34:46.634Z,83.12
2023-04-15T04:35:48.863Z,83.01
2023-04-15T04:36:52.063Z,82.88
2023-04-15T04:37:54.424Z,82.39
2023-04-15T04:38:56.790Z,82.04
2023-04-15T04:39:59.563Z,81.91
2023-04-15T04:41:02.082Z,81.84
2023-04-15T04:42:04.514Z,81.97
2023-04-15T04:43:06.655Z,81.52
2023-04-15T04:44:09.688Z,81.57
2023-04-15T04:45:14.610Z,81.68
2023-04-15T04:46:17.080Z,81.78
2023-04-15T04:47:19.330Z,81.98
2023-04-15T04:48:22.378Z,83.05
2023-04-15T04:49:25.089Z,82.67
2023-04-15T04:50:28.703Z,83.27
2023-04-15T04:51:31.977Z,82.86
2023-04-15T04:52:34.394Z,82.86
2023-04-15T04:53:37.736Z,82.59
2023-04-15T04:54:40.456Z,82.53
2023-04-15T04:55:42.690Z,82.69
2023-04-15T04:56:45.027Z,81.55
2023-04-15T04:57:47.817Z,81.35
2023-04-15T04:58:50.751Z,81.42
2023-04-15T04:59:53.040Z,81.01
2023-04-15T05:00:56.218Z,81.30
2023-04-15T05:01:59.442Z,82.39
2023-04-15T05:03:02.513Z,82.55
2023-04-15T05:04:07.051Z,81.41
2023-04-15T05:05:11.670Z,81.26
2023-04-15T05:06:14.698Z,80.51
2023-04-15T05:07:17.310Z,80.23
2023-04-15T05:08:20.497Z,80.68
2023-04-15T05:09:23.219Z,80.21
2023-04-15T05:10:25.685Z,80.42
2023-04-15T05:11:27.908Z,80.44
2023-04-15T05:12:30.249Z,80.42
2023-04-15T05:13:32.594Z,80.33
2023-04-15T05:14:34.855Z,80.37
2023-04-15T05:15:39.157Z,80.76
2023-04-15T05:16:41.699Z,80.58
2023-04-15T05:17:44.676Z,80.12
2023-04-15T05:18:47.158Z,80.80
2023-04-15T05:19:49.373Z,80.82
2023-04-15T05:20:52.131Z,81.46
2023-04-15T05:21:54.466Z,81.56
2023-04-15T05:22:56.720Z,81.09
2023-04-15T05:23:59.277Z,81.81
2023-04-15T05:25:02.748Z,82.50
2023-04-15T05:26:06.125Z,81.58
2023-04-15T05:27:11.139Z,81.18
2023-04-15T05:28:13.774Z,80.64
2023-04-15T05:29:16.212Z,81.17
2023-04-15T05:30:18.883Z,81.07
2023-04-15T05:31:21.247Z,81.05
2023-04-15T05:32:31.369Z,82.27
2023-04-15T05:33:34.534Z,83.53
2023-04-15T05:34:37.481Z,82.48
2023-04-15T05:35:40.479Z,81.53
2023-04-15T05:36:44.071Z,81.27
2023-04-15T05:37:46.569Z,81.89
2023-04-15T05:38:48.704Z,82.27
2023-04-15T05:39:51.470Z,82.14
2023-04-15T05:40:53.902Z,82.45
2023-04-15T05:41:57.034Z,81.63
2023-04-15T05:42:59.929Z,82.01
2023-04-15T05:44:02.717Z,81.88
2023-04-15T05:45:08.086Z,81.07
2023-04-15T05:46:11.644Z,81.51
2023-04-15T05:47:14.275Z,81.44
2023-04-15T05:48:16.490Z,82.25
2023-04-15T05:49:18.668Z,81.58
2023-04-15T05:50:20.994Z,82.11
2023-04-15T05:51:23.579Z,82.52
2023-04-15T05:52:25.919Z,80.47
2023-04-15T05:53:28.115Z,80.47
2023-04-15T05:54:30.879Z,79.63
2023-04-15T05:55:32.922Z,79.28
2023-04-15T05:56:35.344Z,79.28
2023-04-15T05:57:37.893Z,79.70
2023-04-15T05:58:40.542Z,80.15
2023-04-15T05:59:43.795Z,80.23
2023-04-15T06:00:46.876Z,80.46
2023-04-15T06:01:51.487Z,78.75
2023-04-15T06:02:54.366Z,77.06
2023-04-15T06:03:57.163Z,76.47
2023-04-15T06:05:00.513Z,77.22
2023-04-15T06:06:03.111Z,77.69
2023-04-15T06:07:05.646Z,77.90
2023-04-15T06:08:07.952Z,76.73
2023-04-15T06:09:10.671Z,76.56
2023-04-15T06:10:13.284Z,75.34
2023-04-15T06:11:15.846Z,75.68
2023-04-15T06:12:18.294Z,75.85
2023-04-15T06:13:20.416Z,76.08
2023-04-15T06:14:22.736Z,77.70
2023-04-15T06:15:25.091Z,78.08
2023-04-15T06:16:27.784Z,76.88
2023-04-15T06:17:30.286Z,77.74
2023-04-15T06:18:32.750Z,76.47
2023-04-15T06:19:36.073Z,76.36
2023-04-15T06:20:39.039Z,76.39
2023-04-15T06:21:41.544Z,76.21
2023-04-15T06:22:44.230Z,75.63
2023-04-15T06:23:47.647Z,74.33
2023-04-15T06:24:53.168Z,74.80
2023-04-15T06:25:55.468Z,75.63
2023-04-15T06:26:58.096Z,74.88
2023-04-15T06:28:00.787Z,74.40
2023-04-15T06:29:03.240Z,74.76
2023-04-15T06:30:07.890Z,74.49
2023-04-15T06:31:10.925Z,73.20
2023-04-15T06:32:13.414Z,73.98
2023-04-15T06:33:16.593Z,74.22
2023-04-15T06:34:18.859Z,74.20
2023-04-15T06:35:21.600Z,74.82
2023-04-15T06:36:24.188Z,75.48
2023-04-15T06:37:26.526Z,75.68
2023-04-15T06:38:28.744Z,76.49
2023-04-15T06:39:30.761Z,76.39
2023-04-15T06:40:33.518Z,75.61
2023-04-15T06:41:36.410Z,76.12
2023-04-15T06:42:38.646Z,74.47
2023-04-15T06:43:41.280Z,75.74
2023-04-15T06:44:43.515Z,76.05
2023-04-15T06:45:46.710Z,75.11
2023-04-15T06:46:49.365Z,75.14
2023-04-15T06:47:51.702Z,74.27
2023-04-15T06:48:53.907Z,74.95
2023-04-15T06:49:56.029Z,75.37
2023-04-15T06:50:58.483Z,75.33
2023-04-15T06:52:01.087Z,75.19
2023-04-15T06:53:04.241Z,75.67
2023-04-15T06:54:07.895Z,76.29
2023-04-15T06:55:10.869Z,75.82
2023-04-15T06:56:13.982Z,76.63
2023-04-15T06:57:16.232Z,77.01
2023-04-15T06:58:18.885Z,76.93
2023-04-15T06:59:21.513Z,77.83
2023-04-15T07:00:24.825Z,79.00
2023-04-15T07:01:27.311Z,76.67
2023-04-15T07:02:30.023Z,76.82
2023-04-15T07:03:33.063Z,76.62
2023-04-15T07:04:37.692Z,75.61
2023-04-15T07:05:40.818Z,76.06
2023-04-15T07:06:44.014Z,75.43
2023-04-15T07:07:46.904Z,75.00
2023-04-15T07:08:49.229Z,75.63
2023-04-15T07:09:53.681Z,75.95
2023-04-15T07:10:56.633Z,76.37
2023-04-15T07:11:59.413Z,75.66
2023-04-15T07:13:02.162Z,74.63
2023-04-15T07:14:04.908Z,75.24
2023-04-15T07:15:07.884Z,75.94
2023-04-15T07:16:11.359Z,75.83
2023-04-15T07:17:14.325Z,76.29
2023-04-15T07:18:16.877Z,74.81
2023-04-15T07:19:19.576Z,73.98
2023-04-15T07:20:22.183Z,75.17
2023-04-15T07:21:25.327Z,75.44
2023-04-15T07:22:27.600Z,75.65
2023-04-15T07:23:30.135Z,75.63
2023-04-15T07:24:32.393Z,75.36
2023-04-15T07:25:35.376Z,76.94
2023-04-15T07:26:38.112Z,76.40
2023-04-15T07:27:40.296Z,76.42
2023-04-15T07:28:42.605Z,76.42
2023-04-15T07:29:44.718Z,75.96
2023-04-15T07:30:47.004Z,76.76
2023-04-15T07:31:49.420Z,76.74
2023-04-15T07:32:52.074Z,77.19
2023-04-15T07:33:54.849Z,78.14
2023-04-15T07:34:57.872Z,79.78
2023-04-15T07:36:01.456Z,81.46
2023-04-15T07:37:04.132Z,80.38
2023-04-15T07:38:06.930Z,80.18
2023-04-15T07:39:09.522Z,80.47
2023-04-15T07:40:13.948Z,81.10
2023-04-15T07:41:17.906Z,79.63
2023-04-15T07:42:20.374Z,78.89
2023-04-15T07:43:22.422Z,79.42
2023-04-15T07:44:26.381Z,78.74
2023-04-15T07:45:29.179Z,78.79
2023-04-15T07:46:32.199Z,80.01
2023-04-15T07:47:34.650Z,79.07
2023-04-15T07:48:37.550Z,81.75
2023-04-15T07:49:42.857Z,80.90
2023-04-15T07:50:46.887Z,80.90
2023-04-15T07:51:50.978Z,78.51
2023-04-15T07:52:53.277Z,77.54
2023-04-15T07:53:55.782Z,79.81
2023-04-15T07:54:58.053Z,76.24
2023-04-15T07:56:00.737Z,75.20
2023-04-15T07:57:07.478Z,75.11
2023-04-15T07:58:11.645Z,74.93
2023-04-15T07:59:15.955Z,74.70
2023-04-15T08:00:18.987Z,74.23
2023-04-15T08:01:22.117Z,73.48
2023-04-15T08:02:25.070Z,73.71
2023-04-15T08:03:27.591Z,73.24
2023-04-15T08:04:31.826Z,74.04
2023-04-15T08:05:34.474Z,76.69
2023-04-15T08:06:38.693Z,75.74
2023-04-15T08:07:43.560Z,75.88
2023-04-15T08:08:46.472Z,76.44
2023-04-15T08:09:48.683Z,80.74
2023-04-15T08:10:52.620Z,79.77
2023-04-15T08:11:57.098Z,79.05
2023-04-15T08:13:00.891Z,80.34
2023-04-15T08:14:03.198Z,76.37
2023-04-15T08:15:07.575Z,76.37
2023-04-15T08:16:26.423Z,74.94
2023-04-15T08:17:28.879Z,77.14
2023-04-15T08:18:31.924Z,77.41
2023-04-15T08:19:36.200Z,81.38
2023-04-15T08:20:39.794Z,80.95
2023-04-15T08:21:41.791Z,82.12
2023-04-15T08:22:44.262Z,77.90
2023-04-15T08:23:50.077Z,80.09
2023-04-15T08:24:52.872Z,77.83
2023-04-15T08:25:55.520Z,77.70
2023-04-15T08:26:58.324Z,75.61
2023-04-15T08:28:03.933Z,73.51
2023-04-15T08:29:06.686Z,74.52
2023-04-15T08:30:12.228Z,74.83
2023-04-15T08:31:17.017Z,74.44
2023-04-15T08:32:19.747Z,76.66
2023-04-15T08:33:22.121Z,76.05
2023-04-15T08:34:24.782Z,74.41
2023-04-15T08:35:27.431Z,73.51
2023-04-15T08:36:30.348Z,73.79
2023-04-15T08:37:32.533Z,76.35
2023-04-15T08:38:34.710Z,74.39
2023-04-15T08:39:37.262Z,78.22
2023-04-15T08:40:45.054Z,76.10
2023-04-15T08:41:53.662Z,73.71
2023-04-15T08:42:59.356Z,74.66
2023-04-15T08:44:05.308Z,72.12
2023-04-15T08:45:12.769Z,71.78
2023-04-15T08:46:16.984Z,73.42
2023-04-15T08:47:22.031Z,78.26
2023-04-15T08:48:27.516Z,75.75
2023-04-15T08:49:30.832Z,74.28
2023-04-15T08:50:33.232Z,72.28
2023-04-15T08:51:36.169Z,71.03
2023-04-15T08:52:39.583Z,72.30
2023-04-15T08:53:44.644Z,72.30
2023-04-15T08:54:48.790Z,72.53
2023-04-15T08:55:54.686Z,72.60
2023-04-15T08:56:59.111Z,74.35
2023-04-15T08:58:03.550Z,74.51
2023-04-15T08:59:07.333Z,72.46
2023-04-15T09:00:12.889Z,74.99
2023-04-15T09:01:16.950Z,75.07
2023-04-15T09:02:19.192Z,74.69
2023-04-15T09:03:23.229Z,79.46
2023-04-15T09:04:26.804Z,76.97
2023-04-15T09:05:32.046Z,73.53
2023-04-15T09:06:35.659Z,75.64
2023-04-15T09:07:38.065Z,75.49
2023-04-15T09:08:41.161Z,74.74
2023-04-15T09:09:43.356Z,73.87
2023-04-15T09:10:46.574Z,74.79
2023-04-15T09:11:51.443Z,74.62
2023-04-15T09:12:56.903Z,72.67
2023-04-15T09:13:59.212Z,73.21
2023-04-15T09:15:02.230Z,73.31
2023-04-15T09:16:06.850Z,74.78
2023-04-15T09:17:12.274Z,72.91
2023-04-15T09:19:28.894Z,76.55
2023-04-15T09:20:41.853Z,77.60
2023-04-15T09:21:47.733Z,73.19
2023-04-15T09:22:51.503Z,72.13
2023-04-15T09:23:57.647Z,73.23
2023-04-15T09:25:01.980Z,73.09
2023-04-15T09:26:06.268Z,73.92
2023-04-15T09:27:08.663Z,73.54
2023-04-15T09:28:11.844Z,75.64
2023-04-15T09:29:14.687Z,73.58
2023-04-15T09:30:17.708Z,73.29
2023-04-15T09:31:23.739Z,74.45
2023-04-15T09:32:29.190Z,74.46
2023-04-15T09:33:31.637Z,73.72
2023-04-15T09:34:37.400Z,77.65
2023-04-15T09:35:41.072Z,77.61
2023-04-15T09:36:51.153Z,77.46
2023-04-15T09:37:56.823Z,74.50
2023-04-15T09:39:00.540Z,76.63
2023-04-15T09:40:03.551Z,76.48
2023-04-15T09:41:09.322Z,78.12
2023-04-15T09:42:11.828Z,78.94
2023-04-15T09:43:16.859Z,77.72
2023-04-15T09:44:27.539Z,77.32
2023-04-15T09:45:32.569Z,75.25
2023-04-15T09:46:43.718Z,76.32
2023-04-15T09:47:49.353Z,76.02
2023-04-15T09:49:11.068Z,75.71
2023-04-15T09:50:14.932Z,72.21
2023-04-15T09:51:19.156Z,73.84
2023-04-15T09:52:22.314Z,78.11
2023-04-15T09:53:25.487Z,79.58
2023-04-15T09:54:36.373Z,76.60
2023-04-15T09:55:39.548Z,75.97
2023-04-15T09:56:42.652Z,75.01
2023-04-15T09:57:47.163Z,77.37
2023-04-15T09:58:53.712Z,75.25
2023-04-15T09:59:56.080Z,77.00
2023-04-15T10:01:01.617Z,76.69
2023-04-15T10:02:08.426Z,73.35
2023-04-15T10:03:12.119Z,74.06
2023-04-15T10:04:15.618Z,73.34
2023-04-15T10:05:18.416Z,74.73
2023-04-15T10:06:24.149Z,73.25
2023-04-15T10:07:28.182Z,73.09
2023-04-15T10:08:34.167Z,74.84
2023-04-15T10:09:38.387Z,77.08
2023-04-15T10:10:41.712Z,77.50
2023-04-15T10:11:45.725Z,77.04
2023-04-15T10:12:49.422Z,74.89
2023-04-15T10:13:52.906Z,71.25
2023-04-15T10:15:07.685Z,71.03
2023-04-15T10:16:12.613Z,71.23
2023-04-15T10:17:18.467Z,72.59
2023-04-15T10:18:23.959Z,72.56
2023-04-15T10:19:29.226Z,73.14
2023-04-15T10:20:34.558Z,73.23
2023-04-15T10:21:41.299Z,72.53
2023-04-15T10:22:46.393Z,73.95
2023-04-15T10:23:50.648Z,73.68
2023-04-15T10:24:54.782Z,73.19
2023-04-15T10:25:59.287Z,73.19
2023-04-15T10:27:04.813Z,72.57
2023-04-15T10:28:10.897Z,73.60
2023-04-15T10:29:14.104Z,73.87
2023-04-15T10:30:18.224Z,74.70
2023-04-15T10:31:21.451Z,75.01
2023-04-15T10:32:25.058Z,73.98
2023-04-15T10:33:31.754Z,73.67
2023-04-15T10:34:35.359Z,73.99
2023-04-15T10:35:39.215Z,73.43
2023-04-15T10:36:41.638Z,73.70
2023-04-15T10:37:43.792Z,73.54
2023-04-15T10:38:46.396Z,74.44
2023-04-15T10:39:50.715Z,74.91
2023-04-15T10:40:53.561Z,77.73
2023-04-15T10:42:10.823Z,75.32
2023-04-15T10:43:16.689Z,74.92
2023-04-15T10:44:18.996Z,75.55
2023-04-15T10:45:21.609Z,74.84
2023-04-15T10:46:27.288Z,73.80
2023-04-15T10:47:32.113Z,74.57
2023-04-15T10:48:35.033Z,75.57
2023-04-15T10:49:47.632Z,75.31
2023-04-15T10:50:57.328Z,74.76
2023-04-15T10:52:02.659Z,75.37
2023-04-15T10:53:05.695Z,74.59
2023-04-15T10:54:27.792Z,75.17
2023-04-15T10:55:34.762Z,76.00
2023-04-15T10:56:37.200Z,75.28
2023-04-15T10:57:41.344Z,76.00
2023-04-15T10:58:44.901Z,74.69
2023-04-15T11:00:03.775Z,73.67
2023-04-15T11:01:07.603Z,73.78
2023-04-15T11:02:13.945Z,73.41
2023-04-15T11:03:16.307Z,73.27
2023-04-15T11:04:57.193Z,73.47
2023-04-15T11:06:00.303Z,72.74
2023-04-15T11:07:07.993Z,73.16
2023-04-15T11:08:11.667Z,73.86
2023-04-15T11:09:32.585Z,73.33
2023-04-15T11:10:39.773Z,73.93
2023-04-15T11:12:10.021Z,74.52
2023-04-15T11:13:19.209Z,74.55
2023-04-15T11:14:25.384Z,73.65
2023-04-15T11:15:46.499Z,74.00
2023-04-15T11:16:50.590Z,74.87
2023-04-15T11:17:53.247Z,75.40
2023-04-15T11:18:56.284Z,74.93
2023-04-15T11:19:59.893Z,74.75
2023-04-15T11:21:05.193Z,75.35
2023-04-15T11:22:13.626Z,75.52
2023-04-15T11:23:23.883Z,76.14
2023-04-15T11:24:27.868Z,75.54
2023-04-15T11:25:32.883Z,74.17
2023-04-15T11:26:36.488Z,73.46
2023-04-15T11:27:38.880Z,73.24
2023-04-15T11:28:44.196Z,74.23
2023-04-15T11:29:46.489Z,74.78
2023-04-15T11:30:49.282Z,78.34
2023-04-15T11:31:52.233Z,76.19
2023-04-15T11:32:57.542Z,75.34
2023-04-15T11:34:52.900Z,74.19
2023-04-15T11:36:01.347Z,74.39
2023-04-15T11:37:08.391Z,75.39
2023-04-15T11:38:17.817Z,75.06
2023-04-15T11:39:22.372Z,74.62
2023-04-15T11:40:29.997Z,74.45
2023-04-15T11:41:32.391Z,74.79
2023-04-15T11:42:48.583Z,74.35
2023-04-15T11:43:39.130Z,73.47
2023-04-15T11:44:41.480Z,73.20
2023-04-15T11:45:56.367Z,73.59
2023-04-15T11:46:59.569Z,73.68
2023-04-15T11:48:10.794Z,74.54
2023-04-15T11:49:32.646Z,74.73
2023-04-15T11:50:36.756Z,74.97
2023-04-15T11:51:39.292Z,75.05
2023-04-15T11:52:43.951Z,75.07
2023-04-15T11:53:49.751Z,74.84
2023-04-15T11:54:52.145Z,74.99
2023-04-15T11:55:54.713Z,74.80
2023-04-15T11:56:57.450Z,74.84
2023-04-15T11:58:15.102Z,75.50
2023-04-15T11:59:17.433Z,75.61
2023-04-15T12:00:20.541Z,75.05
2023-04-15T12:01:35.749Z,75.15
2023-04-15T12:02:41.284Z,75.03
2023-04-15T12:03:47.205Z,75.13
2023-04-15T12:04:50.190Z,75.28
2023-04-15T12:06:11.949Z,75.55
2023-04-15T12:07:14.270Z,75.34
2023-04-15T12:08:16.934Z,75.14
2023-04-15T12:09:19.796Z,74.96
2023-04-15T12:10:25.400Z,75.59
2023-04-15T12:11:31.850Z,75.04
2023-04-15T12:12:34.924Z,74.60
2023-04-15T12:13:37.389Z,74.36
2023-04-15T12:14:40.340Z,74.25
2023-04-15T12:15:43.589Z,74.02
2023-04-15T12:16:51.664Z,73.69
2023-04-15T12:17:56.106Z,73.78
2023-04-15T12:19:01.243Z,74.14
2023-04-15T12:20:04.706Z,74.34
2023-04-15T12:21:12.768Z,74.76
2023-04-15T12:22:18.163Z,74.90
2023-04-15T12:23:20.805Z,74.91
2023-04-15T12:24:24.216Z,74.97
2023-04-15T12:25:34.859Z,75.11
2023-04-15T12:26:50.016Z,74.66
2023-04-15T12:27:52.837Z,74.48
2023-04-15T12:29:10.373Z,74.62
2023-04-15T12:30:13.788Z,74.66
2023-04-15T12:31:16.970Z,74.15
2023-04-15T12:32:20.450Z,74.31
2023-04-15T12:33:23.068Z,74.94
2023-04-15T12:34:35.198Z,74.84
2023-04-15T12:35:37.957Z,75.58
2023-04-15T12:36:40.640Z,75.67
2023-04-15T12:37:43.104Z,75.37
2023-04-15T12:38:46.415Z,75.62
2023-04-15T12:39:50.420Z,75.45
2023-04-15T12:40:53.402Z,75.27
2023-04-15T12:41:55.848Z,75.47
2023-04-15T12:42:58.435Z,75.18
2023-04-15T12:44:03.906Z,75.18
2023-04-15T12:45:07.279Z,75.63
2023-04-15T12:46:10.351Z,75.61
2023-04-15T12:47:13.555Z,75.54
2023-04-15T12:48:16.108Z,74.89
2023-04-15T12:49:21.480Z,75.05
2023-04-15T12:50:23.869Z,75.05
2023-04-15T12:51:27.858Z,75.68
2023-04-15T12:52:30.304Z,75.36
2023-04-15T12:53:33.630Z,75.02
2023-04-15T12:54:37.214Z,75.02
2023-04-15T12:55:39.695Z,75.00
2023-04-15T12:56:41.964Z,75.15
2023-04-15T12:57:44.333Z,75.00
2023-04-15T12:58:47.471Z,74.65
2023-04-15T12:59:49.713Z,74.64
2023-04-15T13:00:52.217Z,75.13
2023-04-15T13:01:54.990Z,75.34
2023-04-15T13:02:59.703Z,75.33
2023-04-15T13:04:02.364Z,75.81
2023-04-15T13:05:07.353Z,75.98
2023-04-15T13:06:10.527Z,76.03
2023-04-15T13:07:15.336Z,76.35
2023-04-15T13:08:19.264Z,76.27
2023-04-15T13:09:25.385Z,76.19
2023-04-15T13:10:29.068Z,75.84
2023-04-15T13:11:33.083Z,76.17
2023-04-15T13:12:36.554Z,76.45
2023-04-15T13:13:44.007Z,76.73
2023-04-15T13:14:46.243Z,76.55
2023-04-15T13:15:50.147Z,76.41
2023-04-15T13:16:53.835Z,76.32
2023-04-15T13:17:56.171Z,76.40
2023-04-15T13:19:04.078Z,76.20
2023-04-15T13:20:10.100Z,75.94
2023-04-15T13:21:14.131Z,76.02
2023-04-15T13:22:17.589Z,76.18
2023-04-15T13:23:20.775Z,76.03
2023-04-15T13:24:24.190Z,76.33
2023-04-15T13:25:27.228Z,76.36
2023-04-15T13:26:32.467Z,76.20
2023-04-15T13:27:35.903Z,76.20
2023-04-15T13:28:39.055Z,76.02
2023-04-15T13:29:42.036Z,75.59
2023-04-15T13:30:45.440Z,75.66
2023-04-15T13:31:48.834Z,75.66
2023-04-15T13:32:51.318Z,75.83
2023-04-15T13:33:54.481Z,76.05
2023-04-15T13:34:56.736Z,76.17
2023-04-15T13:35:59.388Z,76.46
2023-04-15T13:37:09.978Z,76.68
2023-04-15T13:38:13.429Z,77.17
2023-04-15T13:39:16.784Z,76.50
2023-04-15T13:40:20.677Z,76.19
2023-04-15T13:41:23.113Z,76.19
2023-04-15T13:42:25.847Z,76.48
2023-04-15T13:43:29.299Z,76.01
2023-04-15T13:44:32.101Z,75.77
2023-04-15T13:45:35.099Z,76.10